Time;durP1;ratioP1;P1;durP2;ratioP2;P2;SDS_P1;SDS_P2;PMS_P1;PMS_P2;Temp;Humidity;BMP_temperature;BMP_pressure;BME280_temperature;BME280_humidity;BME280_pressure;Samples;Min_cycle;Max_cycle;Signal;HPM_P1;HPM_P2
2022/11/05 00:17:03;;;;;;;11.73;8.90;;;;;;;9.24;100.00;100286.91;5023000;28;20064;-65
2022/11/05 00:19:30;;;;;;;15.25;9.07;;;;;;;9.29;100.00;100282.22;5024010;28;20132;-63
2022/11/05 00:27:32;;;;;;;12.20;7.43;;;;;;;9.29;100.00;100282.22;5032351;28;19921;-64
2022/11/05 00:29:59;;;;;;;11.57;8.45;;;;;;;9.29;100.00;100284.84;5028091;28;20042;-64
2022/11/05 00:32:26;;;;;;;12.02;8.15;;;;;;;9.30;100.00;100286.53;5029910;28;20060;-64
2022/11/05 00:34:53;;;;;;;14.18;7.68;;;;;;;9.32;100.00;100295.16;5036489;28;20053;-65
2022/11/05 00:37:20;;;;;;;11.35;6.00;;;;;;;9.39;100.00;100291.25;5034045;28;20524;-64
2022/11/05 00:39:47;;;;;;;12.43;7.50;;;;;;;9.36;100.00;100299.31;5038927;28;20045;-63
2022/11/05 00:45:00;;;;;;;9.52;6.43;;;;;;;9.33;100.00;100299.50;5029158;28;20049;-63
2022/11/05 00:50:34;;;;;;;11.70;6.95;;;;;;;9.33;100.00;100305.59;4989047;28;20050;-62
2022/11/05 00:53:01;;;;;;;9.00;6.47;;;;;;;9.30;100.00;100303.13;5023521;28;20103;-64
2022/11/05 00:55:36;;;;;;;13.85;6.82;;;;;;;9.29;100.00;100306.72;5037100;28;20088;-63
2022/11/05 00:58:08;;;;;;;12.77;6.68;;;;;;;9.34;100.00;100317.78;5035328;28;20045;-63
2022/11/05 01:00:37;;;;;;;10.38;6.72;;;;;;;9.35;100.00;100313.38;5032626;28;20064;-64
2022/11/05 01:03:07;;;;;;;12.00;6.32;;;;;;;9.33;100.00;100318.72;5031600;28;20046;-62
2022/11/05 01:05:55;;;;;;;12.80;6.85;;;;;;;9.32;100.00;100319.69;5031922;28;20530;-64
2022/11/05 01:08:24;;;;;;;18.02;6.55;;;;;;;9.27;100.00;100321.69;5025330;28;20057;-64
2022/11/05 01:10:55;;;;;;;11.50;6.25;;;;;;;9.22;100.00;100325.53;5033766;28;20053;-65
2022/11/05 01:13:25;;;;;;;12.00;6.18;;;;;;;9.23;100.00;100324.59;5035883;28;20063;-62
2022/11/05 01:15:52;;;;;;;13.70;6.78;;;;;;;9.25;100.00;100331.47;5030704;28;20052;-62
2022/11/05 01:18:20;;;;;;;9.80;6.25;;;;;;;9.33;100.00;100333.66;5024467;28;20046;-63
2022/11/05 01:20:47;;;;;;;11.85;5.90;;;;;;;9.36;100.00;100333.44;5032114;28;20145;-64
2022/11/05 01:23:15;;;;;;;14.13;6.57;;;;;;;9.33;100.00;100333.66;5026137;28;20053;-64
2022/11/05 01:25:43;;;;;;;9.45;6.10;;;;;;;9.30;100.00;100332.03;5031418;28;20042;-63
2022/11/05 01:28:10;;;;;;;12.70;6.03;;;;;;;9.28;100.00;100328.66;5031831;28;20059;-64
2022/11/05 01:30:37;;;;;;;9.25;5.85;;;;;;;9.27;100.00;100334.84;5032082;28;20414;-63
2022/11/05 01:33:04;;;;;;;12.13;6.40;;;;;;;9.24;100.00;100329.78;5028252;28;20054;-63
2022/11/05 01:35:32;;;;;;;11.48;5.55;;;;;;;9.23;100.00;100342.97;5030263;28;20057;-62
2022/11/05 01:37:59;;;;;;;12.88;5.57;;;;;;;9.24;100.00;100337.66;5031525;28;20068;-64
2022/11/05 01:40:26;;;;;;;13.75;6.30;;;;;;;9.22;100.00;100330.78;5030281;28;20372;-64
2022/11/05 01:42:53;;;;;;;12.65;6.47;;;;;;;9.22;100.00;100329.00;5025699;28;20042;-64
2022/11/05 01:45:25;;;;;;;12.60;6.15;;;;;;;9.21;100.00;100345.69;5028813;28;20057;-63
2022/11/05 01:48:14;;;;;;;11.50;5.72;;;;;;;9.17;100.00;100340.72;5031950;28;20057;-64
2022/11/05 01:50:41;;;;;;;11.45;6.57;;;;;;;9.10;100.00;100343.72;5028503;28;20410;-66
2022/11/05 01:53:12;;;;;;;11.25;5.93;;;;;;;9.11;100.00;100347.19;5032120;28;20060;-65
2022/11/05 01:55:50;;;;;;;10.30;6.18;;;;;;;9.09;100.00;100338.53;5031827;28;20060;-63
2022/11/05 01:58:20;;;;;;;9.48;6.05;;;;;;;9.09;100.00;100352.50;5029946;28;20061;-64
2022/11/05 02:00:47;;;;;;;11.57;5.88;;;;;;;9.06;100.00;100354.47;5031359;28;20049;-64
2022/11/05 02:03:15;;;;;;;10.32;6.53;;;;;;;9.04;100.00;100354.53;5029967;28;20048;-63
2022/11/05 02:05:43;;;;;;;11.02;6.15;;;;;;;9.05;100.00;100355.38;5031182;28;20049;-64
2022/11/05 02:08:16;;;;;;;14.82;6.22;;;;;;;9.01;100.00;100359.16;5026514;28;20494;-64
2022/11/05 02:10:44;;;;;;;10.23;5.95;;;;;;;8.98;100.00;100370.66;5023972;28;20548;-64
2022/11/05 02:13:11;;;;;;;10.45;5.70;;;;;;;8.97;100.00;100370.75;5027708;28;20053;-63
2022/11/05 02:15:51;;;;;;;12.95;6.03;;;;;;;8.99;100.00;100382.00;5030421;28;20056;-63
2022/11/05 02:18:39;;;;;;;15.13;6.50;;;;;;;8.94;100.00;100377.00;5028628;28;20230;-65
2022/11/05 02:21:25;;;;;;;9.98;6.05;;;;;;;8.90;100.00;100375.47;5029381;28;20129;-62
2022/11/05 02:24:02;;;;;;;12.60;7.55;;;;;;;8.85;100.00;100382.78;5028861;28;20053;-63
2022/11/05 02:26:49;;;;;;;17.80;7.07;;;;;;;8.82;100.00;100398.69;5029716;28;20077;-63
2022/11/05 02:29:36;;;;;;;11.23;6.53;;;;;;;8.77;100.00;100396.31;5028442;28;20061;-63
2022/11/05 02:32:45;;;;;;;15.98;8.00;;;;;;;8.77;100.00;100393.69;5024690;28;20051;-63
2022/11/05 02:35:35;;;;;;;15.70;7.45;;;;;;;8.74;100.00;100401.75;5033759;28;20124;-62
2022/11/05 02:38:05;;;;;;;12.20;7.95;;;;;;;8.70;100.00;100397.59;5024165;28;20037;-64
2022/11/05 02:41:26;;;;;;;15.25;9.00;;;;;;;8.70;100.00;100402.84;5025959;28;20073;-62
2022/11/05 02:44:12;;;;;;;11.80;8.13;;;;;;;8.65;100.00;100404.88;5016334;28;20494;-63
2022/11/05 02:46:56;;;;;;;14.02;7.53;;;;;;;8.66;100.00;100413.59;5026330;28;20063;-64
2022/11/05 02:49:45;;;;;;;17.00;8.52;;;;;;;8.68;100.00;100411.72;5029401;28;20055;-62
2022/11/05 02:52:32;;;;;;;15.07;8.30;;;;;;;8.62;100.00;100410.28;5009505;28;20041;-63
2022/11/05 02:55:26;;;;;;;14.20;8.20;;;;;;;8.57;100.00;100413.16;5027920;28;20071;-64
2022/11/05 02:57:53;;;;;;;12.10;8.80;;;;;;;8.55;100.00;100417.63;5021047;28;20685;-63
2022/11/05 03:00:44;;;;;;;15.23;8.55;;;;;;;8.50;100.00;100418.81;5027949;28;20052;-63
2022/11/05 03:03:17;;;;;;;15.32;9.27;;;;;;;8.53;100.00;100416.88;5027303;28;20042;-63
2022/11/05 03:06:13;;;;;;;15.13;9.15;;;;;;;8.49;100.00;100419.75;5014007;28;20061;-64
2022/11/05 03:09:03;;;;;;;16.30;8.23;;;;;;;8.46;100.00;100430.38;5029536;28;20058;-65
2022/11/05 03:11:31;;;;;;;16.23;8.75;;;;;;;8.42;100.00;100431.47;5027715;28;20076;-64
2022/11/05 03:14:22;;;;;;;16.05;8.35;;;;;;;8.38;100.00;100440.47;5026611;28;20064;-64
2022/11/05 03:17:00;;;;;;;13.88;8.40;;;;;;;8.33;100.00;100440.63;5027660;28;20080;-62
2022/11/05 03:19:37;;;;;;;14.15;7.75;;;;;;;8.33;100.00;100435.41;5027230;28;20061;-62
2022/11/05 03:22:12;;;;;;;16.33;8.57;;;;;;;8.31;100.00;100442.50;5028464;28;20045;-63
2022/11/05 03:24:42;;;;;;;14.65;8.10;;;;;;;8.28;100.00;100442.66;5019998;28;20060;-60
2022/11/05 03:27:14;;;;;;;14.98;8.88;;;;;;;8.27;100.00;100452.31;5027825;28;20129;-63
2022/11/05 03:29:45;;;;;;;13.30;7.93;;;;;;;8.27;100.00;100459.34;5021726;28;20053;-62
2022/11/05 03:32:14;;;;;;;12.75;8.18;;;;;;;8.25;100.00;100461.19;5027887;28;20049;-63
2022/11/05 03:34:45;;;;;;;13.18;8.40;;;;;;;8.25;100.00;100459.41;5021211;28;20132;-62
2022/11/05 03:37:13;;;;;;;12.70;7.57;;;;;;;8.30;100.00;100461.81;5028317;28;20132;-62
2022/11/05 03:39:43;;;;;;;11.32;8.15;;;;;;;8.29;100.00;100460.13;5035469;28;20049;-63
2022/11/05 03:42:13;;;;;;;14.75;8.82;;;;;;;8.25;100.00;100463.81;5021683;28;20147;-63
2022/11/05 03:44:54;;;;;;;18.00;9.25;;;;;;;8.22;100.00;100463.97;5019268;28;20045;-63
2022/11/05 03:47:24;;;;;;;13.02;8.70;;;;;;;8.22;100.00;100469.22;5027557;28;20049;-64
2022/11/05 03:50:06;;;;;;;13.73;8.55;;;;;;;8.20;100.00;100469.31;5024073;28;20048;-63
2022/11/05 03:52:38;;;;;;;15.13;7.75;;;;;;;8.22;100.00;100475.31;5029141;28;20058;-64
2022/11/05 03:55:06;;;;;;;11.73;8.35;;;;;;;8.24;100.00;100478.72;5027318;28;20574;-63
2022/11/05 03:57:36;;;;;;;13.07;8.13;;;;;;;8.20;100.00;100482.41;5028513;28;20156;-63
2022/11/05 04:00:07;;;;;;;16.00;7.85;;;;;;;8.23;100.00;100484.00;5026154;28;20088;-63
2022/11/05 04:02:34;;;;;;;14.20;7.65;;;;;;;8.25;100.00;100487.44;5025639;28;20042;-64
2022/11/05 04:05:01;;;;;;;18.27;8.95;;;;;;;8.22;100.00;100487.56;5028656;28;20055;-64
2022/11/05 04:13:26;;;;;;;15.70;8.43;;;;;;;8.18;100.00;100507.00;4971535;28;20051;-63
2022/11/05 04:18:41;;;;;;;20.98;10.23;;;;;;;8.07;100.00;100518.91;5024562;28;20067;-61
2022/11/05 04:24:07;;;;;;;16.42;8.85;;;;;;;8.08;100.00;100519.75;5029302;28;20145;-60
2022/11/05 04:26:36;;;;;;;13.57;8.07;;;;;;;8.09;100.00;100519.66;5035651;28;20100;-63
2022/11/05 04:31:50;;;;;;;15.95;8.02;;;;;;;7.98;100.00;100524.59;5021994;28;20049;-61
2022/11/05 04:34:23;;;;;;;18.83;8.43;;;;;;;7.95;100.00;100523.91;5032137;28;20071;-62
2022/11/05 04:36:51;;;;;;;19.63;8.82;;;;;;;7.94;100.00;100528.28;5032284;28;20045;-63
2022/11/05 04:39:20;;;;;;;18.83;8.77;;;;;;;7.90;100.00;100529.38;5030747;28;20124;-63
2022/11/05 04:41:47;;;;;;;14.80;8.00;;;;;;;7.92;100.00;100535.38;5025950;28;20470;-63
2022/11/05 04:44:15;;;;;;;15.18;7.40;;;;;;;7.94;100.00;100537.94;5032638;28;20053;-65
2022/11/05 04:46:42;;;;;;;15.75;7.93;;;;;;;7.95;100.00;100535.22;5037016;28;20136;-64
2022/11/05 04:49:09;;;;;;;18.65;9.05;;;;;;;7.94;100.00;100535.31;5041330;28;20104;-64
2022/11/05 04:51:37;;;;;;;13.57;7.43;;;;;;;7.95;100.00;100529.97;5041073;28;20089;-64
2022/11/05 04:54:04;;;;;;;17.27;8.45;;;;;;;7.91;100.00;100538.06;5038911;28;20056;-60
2022/11/05 04:56:31;;;;;;;20.85;7.65;;;;;;;7.86;100.00;100538.31;5032426;28;20414;-61
2022/11/05 04:58:58;;;;;;;17.00;8.05;;;;;;;7.87;100.00;100534.75;5032968;28;20054;-62
2022/11/05 05:01:25;;;;;;;15.40;7.18;;;;;;;7.85;100.00;100534.00;5033498;28;20065;-63
2022/11/05 05:03:53;;;;;;;12.55;7.03;;;;;;;7.84;100.00;100538.38;5032482;28;20076;-63
2022/11/05 05:06:21;;;;;;;21.40;8.32;;;;;;;7.86;100.00;100535.69;5031368;28;20132;-63
2022/11/05 05:08:50;;;;;;;16.95;8.48;;;;;;;7.85;100.00;100544.47;5029055;28;20061;-62
2022/11/05 05:11:19;;;;;;;15.30;6.80;;;;;;;7.80;100.00;100549.09;5031062;28;20064;-65
2022/11/05 05:13:46;;;;;;;12.18;7.10;;;;;;;7.78;100.00;100538.66;5031613;28;20060;-63
2022/11/05 05:16:25;;;;;;;19.42;7.88;;;;;;;7.79;100.00;100540.38;5031338;28;20517;-62
2022/11/05 05:18:53;;;;;;;17.45;7.57;;;;;;;7.81;100.00;100545.53;5025700;28;20057;-62
2022/11/05 05:21:39;;;;;;;14.43;6.80;;;;;;;7.85;100.00;100536.63;5034627;28;20056;-63
2022/11/05 05:24:09;;;;;;;14.95;6.85;;;;;;;7.85;100.00;100539.22;5031084;28;20112;-63
2022/11/05 05:26:41;;;;;;;16.30;7.68;;;;;;;7.84;100.00;100551.50;5029293;28;20049;-62
2022/11/05 05:29:08;;;;;;;18.10;6.97;;;;;;;7.83;100.00;100551.53;5027728;28;20057;-63
2022/11/05 05:31:36;;;;;;;11.55;6.32;;;;;;;7.89;100.00;100553.03;5026590;28;20061;-62
2022/11/05 05:34:04;;;;;;;18.42;6.93;;;;;;;7.85;100.00;100558.44;5025431;28;20060;-62
2022/11/05 05:36:31;;;;;;;13.38;7.55;;;;;;;7.83;100.00;100562.91;5030576;28;20685;-63
2022/11/05 05:38:58;;;;;;;14.73;6.85;;;;;;;7.81;100.00;100566.50;5033282;28;20082;-63
2022/11/05 05:41:25;;;;;;;11.48;6.25;;;;;;;7.82;100.00;100578.69;5026849;28;20509;-62
2022/11/05 05:43:53;;;;;;;19.55;7.72;;;;;;;7.78;100.00;100574.50;5031479;28;20048;-63
2022/11/05 05:46:20;;;;;;;13.05;6.60;;;;;;;7.73;100.00;100581.75;5026601;28;20084;-63
2022/11/05 05:48:49;;;;;;;16.35;6.78;;;;;;;7.63;100.00;100588.34;5030934;28;20064;-63
2022/11/05 05:51:16;;;;;;;12.52;7.05;;;;;;;7.61;100.00;100589.28;5030809;28;20051;-62
2022/11/05 05:53:44;;;;;;;15.55;6.70;;;;;;;7.60;100.00;100586.72;5030356;28;20055;-65
2022/11/05 05:56:13;;;;;;;14.02;6.85;;;;;;;7.55;100.00;100594.78;5029878;28;20669;-63
2022/11/05 05:58:41;;;;;;;18.23;6.82;;;;;;;7.54;100.00;100593.09;5028409;28;20053;-63
2022/11/05 06:01:11;;;;;;;19.58;7.03;;;;;;;7.55;100.00;100597.41;5028083;28;20441;-64
2022/11/05 06:03:44;;;;;;;14.60;6.35;;;;;;;7.56;100.00;100601.72;5022926;28;20128;-62
2022/11/05 06:06:12;;;;;;;19.20;7.70;;;;;;;7.53;100.00;100612.38;5026634;28;20062;-63
2022/11/05 06:08:41;;;;;;;16.67;6.43;;;;;;;7.61;100.00;100614.63;5029193;28;20063;-65
2022/11/05 06:11:08;;;;;;;19.10;7.75;;;;;;;7.61;100.00;100620.72;5030874;28;20049;-63
2022/11/05 06:13:36;;;;;;;13.13;7.07;;;;;;;7.55;100.00;100620.13;5028296;28;20056;-63
2022/11/05 06:16:05;;;;;;;21.83;8.25;;;;;;;7.51;100.00;100622.03;5031815;28;20144;-64
2022/11/05 06:18:33;;;;;;;14.30;7.28;;;;;;;7.49;100.00;100623.06;5030149;28;20141;-64
2022/11/05 06:21:04;;;;;;;19.20;7.63;;;;;;;7.51;100.00;100629.91;5030854;28;20049;-62
2022/11/05 06:23:33;;;;;;;12.77;6.85;;;;;;;7.53;100.00;100646.41;5027107;28;20041;-64
2022/11/05 06:26:04;;;;;;;20.17;7.57;;;;;;;7.52;100.00;100649.09;5031767;28;20409;-63
2022/11/05 06:28:32;;;;;;;16.33;6.20;;;;;;;7.49;100.00;100655.34;5030405;28;20049;-64
2022/11/05 06:30:59;;;;;;;15.45;6.82;;;;;;;7.44;100.00;100657.31;5029523;28;20056;-62
2022/11/05 06:33:26;;;;;;;19.35;6.68;;;;;;;7.39;100.00;100655.84;5028421;28;20052;-64
2022/11/05 06:35:57;;;;;;;19.42;6.78;;;;;;;7.36;100.00;100660.28;5025300;28;20042;-65
2022/11/05 06:38:24;;;;;;;19.65;7.20;;;;;;;7.38;100.00;100668.06;5027916;28;20064;-65
2022/11/05 06:40:52;;;;;;;23.30;8.88;;;;;;;7.31;100.00;100666.66;5028962;28;20060;-62
2022/11/05 06:43:19;;;;;;;19.67;6.72;;;;;;;7.33;100.00;100667.41;5028568;28;20056;-65
2022/11/05 06:45:46;;;;;;;25.08;7.35;;;;;;;7.33;100.00;100667.41;5037326;28;20046;-63
2022/11/05 06:48:13;;;;;;;12.10;6.60;;;;;;;7.34;100.00;100679.63;5031131;28;20061;-62
2022/11/05 06:50:45;;;;;;;15.73;7.15;;;;;;;7.33;100.00;100676.13;5030136;28;20510;-64
2022/11/05 06:53:12;;;;;;;20.42;6.82;;;;;;;7.37;100.00;100679.44;5027796;28;20083;-64
2022/11/05 06:55:40;;;;;;;19.52;7.85;;;;;;;7.48;100.00;100687.69;5030139;28;20050;-63
2022/11/05 06:58:07;;;;;;;18.15;6.70;;;;;;;7.46;100.00;100689.50;5029743;28;20376;-62
2022/11/05 07:00:34;;;;;;;18.35;6.97;;;;;;;7.46;100.00;100693.91;5029211;28;20064;-64
2022/11/05 07:03:09;;;;;;;11.95;6.30;;;;;;;7.44;100.00;100696.59;5017096;28;20153;-64
2022/11/05 07:05:41;;;;;;;15.98;6.65;;;;;;;7.40;100.00;100694.19;5025945;28;20057;-63
2022/11/05 07:08:08;;;;;;;14.68;7.90;;;;;;;7.37;100.00;100695.16;5028737;28;20510;-63
2022/11/05 07:10:35;;;;;;;14.00;7.00;;;;;;;7.39;100.00;100716.06;5029339;28;20064;-64
2022/11/05 07:13:03;;;;;;;22.85;6.10;;;;;;;7.40;100.00;100702.91;5022481;28;20053;-65
2022/11/05 07:15:35;;;;;;;17.08;6.53;;;;;;;7.44;100.00;100703.63;5030083;28;20497;-65
2022/11/05 07:18:03;;;;;;;18.90;6.72;;;;;;;7.48;100.00;100706.03;5027443;28;20053;-62
2022/11/05 07:20:30;;;;;;;20.75;7.35;;;;;;;7.50;100.00;100712.03;5029383;28;20655;-63
2022/11/05 07:23:05;;;;;;;12.80;6.35;;;;;;;7.52;100.00;100720.69;5027294;28;20512;-62
2022/11/05 07:25:33;;;;;;;14.55;6.68;;;;;;;7.49;100.00;100726.06;5031402;28;20060;-62
2022/11/05 07:28:01;;;;;;;13.70;6.28;;;;;;;7.50;100.00;100737.38;5029807;28;20066;-63
2022/11/05 07:30:28;;;;;;;14.70;5.90;;;;;;;7.49;100.00;100741.78;5028110;28;20057;-65
2022/11/05 07:32:55;;;;;;;22.23;6.68;;;;;;;7.46;100.00;100735.81;5030268;28;20049;-64
2022/11/05 07:35:23;;;;;;;19.98;6.82;;;;;;;7.43;100.00;100739.44;5028581;28;20063;-63
2022/11/05 07:37:52;;;;;;;16.23;5.82;;;;;;;7.42;100.00;100742.09;5022814;28;20140;-63
2022/11/05 07:40:21;;;;;;;15.40;5.60;;;;;;;7.33;100.00;100741.59;5031139;28;20139;-64
2022/11/05 07:42:50;;;;;;;13.75;5.53;;;;;;;7.35;100.00;100736.31;5029467;28;20057;-63
2022/11/05 07:45:18;;;;;;;15.90;5.90;;;;;;;7.35;100.00;100733.69;5024359;28;20041;-64
2022/11/05 07:47:56;;;;;;;25.48;6.63;;;;;;;7.40;100.00;100729.09;5031726;28;20124;-63
2022/11/05 07:50:25;;;;;;;20.42;6.43;;;;;;;7.42;100.00;100727.25;5033695;28;20061;-62
2022/11/05 07:52:52;;;;;;;14.13;6.45;;;;;;;7.47;100.00;100727.88;5026904;28;20057;-64
2022/11/05 07:55:20;;;;;;;17.75;6.68;;;;;;;7.47;100.00;100733.13;5033916;28;20055;-64
2022/11/05 07:57:48;;;;;;;19.08;6.05;;;;;;;7.50;100.00;100734.75;5029730;28;20048;-64
2022/11/05 08:00:20;;;;;;;16.98;6.28;;;;;;;7.51;100.00;100742.53;5025080;28;20049;-64
2022/11/05 08:03:15;;;;;;;14.23;5.35;;;;;;;7.55;100.00;100741.50;5022634;28;20403;-64
2022/11/05 08:05:45;;;;;;;;;;;;;;;7.57;100.00;100755.41;5028903;28;20524;-64
2022/11/05 08:08:20;;;;;;;18.67;5.90;;;;;;;7.63;100.00;100745.56;5028397;28;19925;-64
2022/11/05 08:10:48;;;;;;;18.08;5.65;;;;;;;7.66;100.00;100759.38;5024786;28;20060;-64
2022/11/05 08:13:15;;;;;;;25.30;6.85;;;;;;;7.68;100.00;100759.28;5027218;28;20045;-63
2022/11/05 08:15:43;;;;;;;20.88;7.03;;;;;;;7.64;100.00;100769.06;5027708;28;20037;-63
2022/11/05 08:18:13;;;;;;;24.73;8.55;;;;;;;7.60;100.00;100767.50;5023908;28;20087;-63
2022/11/05 08:20:41;;;;;;;18.40;7.07;;;;;;;7.59;100.00;100769.25;5027974;28;20068;-64
2022/11/05 08:23:08;;;;;;;14.32;6.00;;;;;;;7.62;100.00;100763.06;5028691;28;20052;-63
2022/11/05 08:25:36;;;;;;;16.15;6.07;;;;;;;7.64;100.00;100771.69;5026233;28;20048;-64
2022/11/05 08:28:10;;;;;;;17.60;5.57;;;;;;;7.60;100.00;100773.56;5028263;28;20049;-64
2022/11/05 08:30:37;;;;;;;11.82;5.57;;;;;;;7.61;100.00;100784.94;5028213;28;20084;-64
2022/11/05 08:33:06;;;;;;;12.43;5.00;;;;;;;7.61;100.00;100782.31;5028859;28;20515;-64
2022/11/05 08:35:35;;;;;;;14.07;5.85;;;;;;;7.63;100.00;100800.56;5026622;28;20049;-63
2022/11/05 08:38:03;;;;;;;11.60;5.05;;;;;;;7.65;100.00;100798.72;5028606;28;20128;-64
2022/11/05 08:40:33;;;;;;;19.27;6.00;;;;;;;7.69;100.00;100797.69;5029141;28;20053;-64
2022/11/05 08:43:02;;;;;;;11.82;5.80;;;;;;;7.64;100.00;100804.88;5025424;28;20057;-64
2022/11/05 08:45:29;;;;;;;15.10;5.55;;;;;;;7.61;100.00;100801.50;5027947;28;20396;-63
2022/11/05 08:48:00;;;;;;;21.05;7.03;;;;;;;7.67;100.00;100799.53;5028274;28;20046;-63
2022/11/05 08:50:27;;;;;;;22.83;7.80;;;;;;;7.75;100.00;100795.66;5030103;28;20092;-64
2022/11/05 08:52:54;;;;;;;15.82;6.22;;;;;;;7.75;100.00;100800.91;5028499;28;20152;-64
2022/11/05 08:55:22;;;;;;;14.10;6.82;;;;;;;7.80;100.00;100800.69;5029968;28;20613;-64
2022/11/05 08:57:56;;;;;;;19.95;7.68;;;;;;;7.87;100.00;100804.72;5030222;28;20153;-63
2022/11/05 09:00:24;;;;;;;21.13;6.82;;;;;;;7.89;100.00;100805.50;5032185;28;20072;-63
2022/11/05 09:02:51;;;;;;;16.13;6.40;;;;;;;7.96;100.00;100809.53;5028277;28;20049;-64
2022/11/05 09:05:18;;;;;;;13.43;6.05;;;;;;;8.04;100.00;100815.28;5031369;28;20088;-64
2022/11/05 09:07:45;;;;;;;22.90;7.25;;;;;;;8.11;100.00;100811.50;5032273;28;20049;-64
2022/11/05 09:10:12;;;;;;;21.30;7.18;;;;;;;8.17;100.00;100818.22;5031552;28;20045;-65
2022/11/05 09:12:39;;;;;;;26.10;8.45;;;;;;;8.21;100.00;100818.94;5030064;28;20707;-63
2022/11/05 09:15:08;;;;;;;20.15;6.43;;;;;;;8.30;100.00;100823.75;5030852;28;20458;-63
2022/11/05 09:17:35;;;;;;;21.70;7.53;;;;;;;8.38;100.00;100829.53;5031953;28;20067;-63
2022/11/05 09:20:03;;;;;;;16.02;5.43;;;;;;;8.47;100.00;100834.34;5031060;28;20149;-65
2022/11/05 09:22:30;;;;;;;13.20;5.43;;;;;;;8.57;100.00;100826.88;5028177;28;20452;-62
2022/11/05 09:24:57;;;;;;;15.25;5.20;;;;;;;8.65;100.00;100826.53;5031225;28;20050;-63
2022/11/05 09:27:25;;;;;;;14.10;5.43;;;;;;;8.71;100.00;100842.81;5029871;28;20053;-63
2022/11/05 09:29:52;;;;;;;13.82;5.28;;;;;;;8.79;100.00;100834.59;5029690;28;20084;-64
2022/11/05 09:32:19;;;;;;;17.90;6.13;;;;;;;8.88;100.00;100836.78;5027812;28;20045;-64
2022/11/05 09:34:47;;;;;;;14.07;4.85;;;;;;;8.98;100.00;100842.44;5028962;28;20409;-62
2022/11/05 09:37:15;;;;;;;20.48;4.75;;;;;;;9.07;100.00;100845.44;5030990;28;20574;-63
2022/11/05 09:39:42;;;;;;;16.67;5.72;;;;;;;9.12;100.00;100851.31;5031704;28;20065;-63
2022/11/05 09:42:12;;;;;;;16.13;5.05;;;;;;;9.19;100.00;100856.28;5031359;28;20053;-63
2022/11/05 09:44:46;;;;;;;27.13;5.97;;;;;;;9.25;100.00;100851.56;5028683;28;20079;-63
2022/11/05 09:47:18;;;;;;;15.82;4.95;;;;;;;9.28;100.00;100858.47;5025393;28;20720;-63
2022/11/05 09:49:49;;;;;;;14.70;4.85;;;;;;;9.35;100.00;100857.22;5032911;28;20055;-64
2022/11/05 09:52:24;;;;;;;15.57;4.70;;;;;;;9.37;99.72;100858.00;5029193;28;20049;-64
2022/11/05 09:54:53;;;;;;;17.95;5.32;;;;;;;9.43;99.49;100860.31;5028022;28;20099;-64
2022/11/05 09:57:51;;;;;;;14.48;4.80;;;;;;;9.52;99.64;100861.63;5028856;28;20057;-62
2022/11/05 10:00:18;;;;;;;13.90;4.75;;;;;;;9.49;95.92;100864.41;5026863;28;20056;-64
2022/11/05 10:03:03;;;;;;;14.02;4.32;;;;;;;9.53;96.10;100865.94;5025659;28;20724;-62
2022/11/05 10:05:31;;;;;;;17.02;4.82;;;;;;;9.56;94.13;100863.16;5028087;28;20554;-64
2022/11/05 10:08:03;;;;;;;14.23;3.95;;;;;;;9.64;94.88;100874.16;5036688;28;20128;-63
2022/11/05 10:10:40;;;;;;;15.75;4.65;;;;;;;9.73;94.91;100867.56;5040069;28;20144;-63
2022/11/05 10:13:28;;;;;;;14.93;4.70;;;;;;;9.85;94.24;100869.53;5036244;28;20064;-64
2022/11/05 10:16:07;;;;;;;15.40;3.97;;;;;;;9.93;93.55;100869.16;5030735;28;20042;-61
2022/11/05 10:18:40;;;;;;;10.18;3.90;;;;;;;9.99;92.13;100874.94;5026893;28;20430;-63
2022/11/05 10:21:14;;;;;;;11.00;3.90;;;;;;;10.04;90.70;100870.31;5028971;28;20144;-63
2022/11/05 10:23:42;;;;;;;14.48;3.60;;;;;;;10.09;90.01;100873.53;5033704;28;20049;-61
2022/11/05 10:26:13;;;;;;;13.27;3.38;;;;;;;10.05;86.70;100872.00;5029443;28;20060;-61
2022/11/05 10:28:40;;;;;;;14.02;4.63;;;;;;;10.10;86.44;100875.22;5027478;28;20125;-64
2022/11/05 10:31:11;;;;;;;11.82;3.38;;;;;;;10.20;86.18;100885.25;5027681;28;20075;-63
2022/11/05 10:33:42;;;;;;;27.40;5.85;;;;;;;10.23;86.47;100885.13;5027570;28;20045;-63
2022/11/05 10:36:14;;;;;;;11.75;2.90;;;;;;;10.27;85.62;100887.53;5022956;28;20042;-63
2022/11/05 10:38:41;;;;;;;14.60;3.25;;;;;;;10.33;85.08;100891.59;5026803;28;20155;-63
2022/11/05 10:41:29;;;;;;;12.07;3.20;;;;;;;10.41;84.17;100893.84;5028706;28;20053;-64
2022/11/05 10:44:16;;;;;;;15.13;3.08;;;;;;;10.55;81.84;100897.41;5026405;28;20080;-63
2022/11/05 10:46:53;;;;;;;19.20;3.80;;;;;;;10.86;80.69;100891.31;5029200;28;20045;-64
2022/11/05 10:49:48;;;;;;;12.65;2.90;;;;;;;11.21;78.56;100908.69;5034265;28;20059;-64
2022/11/05 10:52:24;;;;;;;13.73;3.08;;;;;;;11.44;77.01;100910.88;5028917;28;20049;-63
2022/11/05 10:54:54;;;;;;;7.82;2.70;;;;;;;11.57;77.06;100914.50;5027768;28;20064;-63
2022/11/05 10:57:28;;;;;;;26.48;2.63;;;;;;;11.66;75.85;100916.59;5028563;28;20056;-63
2022/11/05 11:00:16;;;;;;;17.83;3.05;;;;;;;11.73;74.99;100916.22;5025579;28;20030;-63
2022/11/05 11:02:54;;;;;;;12.63;2.30;;;;;;;11.75;74.88;100914.31;5029953;28;20049;-63
2022/11/05 11:05:29;;;;;;;16.33;2.20;;;;;;;11.76;74.63;100905.50;5028904;28;20137;-63
2022/11/05 11:08:22;;;;;;;13.43;2.80;;;;;;;11.97;74.72;100914.78;5029423;28;20413;-62
2022/11/05 11:10:50;;;;;;;9.20;2.20;;;;;;;12.16;72.65;100904.81;5042345;28;20045;-62
2022/11/05 11:13:39;;;;;;;11.05;2.60;;;;;;;12.33;71.73;100902.91;5029014;28;20064;-63
2022/11/05 11:16:15;;;;;;;11.70;2.30;;;;;;;12.51;69.53;100909.69;5018672;28;20049;-64
2022/11/05 11:18:45;;;;;;;13.38;2.63;;;;;;;12.66;68.38;100910.56;5029758;28;20069;-63
2022/11/05 11:21:18;;;;;;;12.20;3.65;;;;;;;12.77;68.76;100901.94;5039232;28;20059;-63
2022/11/05 11:24:03;;;;;;;10.90;2.35;;;;;;;12.99;68.92;100911.97;5038052;28;20454;-64
2022/11/05 11:26:33;;;;;;;14.30;2.60;;;;;;;13.35;67.58;100906.97;5035366;28;20077;-64
2022/11/05 11:29:05;;;;;;;11.35;2.47;;;;;;;13.39;65.97;100907.63;5042685;28;20047;-64
2022/11/05 11:31:36;;;;;;;8.65;2.05;;;;;;;13.41;65.94;100911.84;5038467;28;20061;-64
2022/11/05 11:34:11;;;;;;;13.68;2.40;;;;;;;13.55;65.55;100908.28;5037032;28;20684;-61
2022/11/05 11:36:44;;;;;;;17.02;2.65;;;;;;;13.83;65.60;100911.72;5027187;28;20064;-62
2022/11/05 11:39:18;;;;;;;9.50;1.75;;;;;;;14.31;65.14;100907.47;5023504;28;20060;-63
2022/11/05 11:41:50;;;;;;;16.38;2.92;;;;;;;14.85;61.77;100911.66;5025039;28;20052;-63
2022/11/05 11:44:19;;;;;;;10.27;2.50;;;;;;;15.09;60.29;100909.03;5029865;28;20538;-63
2022/11/05 11:47:00;;;;;;;9.70;2.65;;;;;;;15.26;59.67;100916.56;5027653;28;20433;-63
2022/11/05 11:49:48;;;;;;;14.50;3.10;;;;;;;15.04;57.78;100909.38;5030143;28;20533;-64
2022/11/05 11:52:28;;;;;;;15.35;2.25;;;;;;;14.89;59.19;100908.66;5026057;28;20056;-64
2022/11/05 11:55:10;;;;;;;10.45;2.50;;;;;;;14.34;60.11;100923.16;5026117;28;20046;-62
2022/11/05 11:57:49;;;;;;;13.50;2.55;;;;;;;14.11;60.96;100927.41;5026585;28;20054;-64
2022/11/05 12:00:17;;;;;;;8.35;2.10;;;;;;;13.83;61.02;100923.16;5024121;28;20055;-64
2022/11/05 12:03:03;;;;;;;9.25;2.28;;;;;;;13.68;61.93;100921.53;5023664;28;20065;-61
2022/11/05 12:05:32;;;;;;;;;;;;;;;13.76;61.34;100915.72;5028743;28;20060;-64
2022/11/05 12:08:12;;;;;;;11.02;2.22;;;;;;;13.85;60.67;100917.75;5026197;28;19925;-64
2022/11/05 12:11:12;;;;;;;11.85;2.22;;;;;;;13.77;61.21;100912.13;5026322;28;20058;-64
2022/11/05 12:13:48;;;;;;;9.77;1.98;;;;;;;13.87;58.92;100921.16;5025668;28;20049;-64
2022/11/05 12:16:31;;;;;;;6.93;1.40;;;;;;;13.91;59.40;100927.91;5027430;28;20410;-63
2022/11/05 12:19:11;;;;;;;9.55;2.03;;;;;;;14.27;57.89;100913.09;5009341;28;20581;-61
2022/11/05 12:21:44;;;;;;;8.90;2.13;;;;;;;13.91;58.87;100919.97;5028526;28;20084;-63
2022/11/05 12:24:19;;;;;;;5.38;1.83;;;;;;;13.56;60.51;100915.28;5022438;28;20521;-63